Terminal Aerodrome Forecast
Issued by NWS Billings, MT

Home | Current Version | Previous Version | Text Only | Print | Product List | Glossary On
Versions: 1 2 3 4 5 6 7 8 9 10 11 12 13 14 15 16 17 18 19 20 21 22 23 24 25 26 27 28 29 30 31 32 33 34
000
FTUS45 KBYZ 252335
TAFSHR
TAF
KSHR 252335Z 2600/2624 33014G18KT P6SM OVC025
     FM260600 VRB05KT P6SM VCSH FEW015 SCT060
     FM261000 33007KT 5SM -SHRA SCT010 OVC035
     FM261300 33015G21KT 4SM -RA SCT008 OVC015=

USA.gov is the U.S. government's official web portal to all federal, state and local government web resources and services.